sensor_id;sensor_type;location;lat;lon;timestamp;P1;durP1;ratioP1;P2;durP2;ratioP2
77105;SDS011;66057;54.718;18.426;2024-01-06T00:01:19;26.75;;;11.77;;
77105;SDS011;66057;54.718;18.426;2024-01-06T00:03:46;34.47;;;11.93;;
77105;SDS011;66057;54.718;18.426;2024-01-06T00:06:12;26.40;;;12.75;;
77105;SDS011;66057;54.718;18.426;2024-01-06T00:11:05;17.35;;;8.90;;
77105;SDS011;66057;54.718;18.426;2024-01-06T00:13:31;20.52;;;5.68;;
77105;SDS011;66057;54.718;18.426;2024-01-06T00:15:57;10.75;;;3.63;;
77105;SDS011;66057;54.718;18.426;2024-01-06T00:18:23;0.98;;;0.43;;
77105;SDS011;66057;54.718;18.426;2024-01-06T00:20:48;0.47;;;0.43;;
77105;SDS011;66057;54.718;18.426;2024-01-06T00:23:14;0.55;;;0.22;;
77105;SDS011;66057;54.718;18.426;2024-01-06T00:25:40;0.57;;;0.32;;
77105;SDS011;66057;54.718;18.426;2024-01-06T00:28:06;0.20;;;0.20;;
77105;SDS011;66057;54.718;18.426;2024-01-06T00:30:31;0.47;;;0.15;;
77105;SDS011;66057;54.718;18.426;2024-01-06T00:32:58;0.25;;;0.20;;
77105;SDS011;66057;54.718;18.426;2024-01-06T00:35:24;0.50;;;0.47;;
77105;SDS011;66057;54.718;18.426;2024-01-06T00:37:49;0.68;;;0.25;;
77105;SDS011;66057;54.718;18.426;2024-01-06T00:40:15;0.45;;;0.25;;
77105;SDS011;66057;54.718;18.426;2024-01-06T00:42:41;4.47;;;0.35;;
77105;SDS011;66057;54.718;18.426;2024-01-06T00:45:07;1.23;;;0.00;;
77105;SDS011;66057;54.718;18.426;2024-01-06T00:47:33;0.95;;;0.17;;
77105;SDS011;66057;54.718;18.426;2024-01-06T00:49:59;0.40;;;0.10;;
77105;SDS011;66057;54.718;18.426;2024-01-06T00:52:25;0.28;;;0.10;;
77105;SDS011;66057;54.718;18.426;2024-01-06T00:54:53;0.65;;;0.20;;
77105;SDS011;66057;54.718;18.426;2024-01-06T00:57:20;0.35;;;0.10;;
77105;SDS011;66057;54.718;18.426;2024-01-06T00:59:49;0.50;;;0.20;;
77105;SDS011;66057;54.718;18.426;2024-01-06T01:02:16;0.13;;;0.13;;
77105;SDS011;66057;54.718;18.426;2024-01-06T01:04:43;3.13;;;0.45;;
77105;SDS011;66057;54.718;18.426;2024-01-06T01:07:10;0.28;;;0.10;;
77105;SDS011;66057;54.718;18.426;2024-01-06T01:09:35;0.20;;;0.10;;
77105;SDS011;66057;54.718;18.426;2024-01-06T01:12:02;0.90;;;0.50;;
77105;SDS011;66057;54.718;18.426;2024-01-06T01:14:27;0.77;;;0.30;;
77105;SDS011;66057;54.718;18.426;2024-01-06T01:16:54;0.57;;;0.55;;
77105;SDS011;66057;54.718;18.426;2024-01-06T01:19:20;0.52;;;0.10;;
77105;SDS011;66057;54.718;18.426;2024-01-06T01:21:46;0.65;;;0.10;;
77105;SDS011;66057;54.718;18.426;2024-01-06T01:24:15;0.30;;;0.30;;
77105;SDS011;66057;54.718;18.426;2024-01-06T01:26:41;0.30;;;0.30;;
77105;SDS011;66057;54.718;18.426;2024-01-06T01:29:06;0.90;;;0.30;;
77105;SDS011;66057;54.718;18.426;2024-01-06T01:31:36;0.20;;;0.15;;
77105;SDS011;66057;54.718;18.426;2024-01-06T01:34:02;1.70;;;0.20;;
77105;SDS011;66057;54.718;18.426;2024-01-06T01:36:30;0.57;;;0.20;;
77105;SDS011;66057;54.718;18.426;2024-01-06T01:38:56;2.20;;;0.32;;
77105;SDS011;66057;54.718;18.426;2024-01-06T01:41:24;0.38;;;0.10;;
77105;SDS011;66057;54.718;18.426;2024-01-06T01:43:50;0.20;;;0.03;;
77105;SDS011;66057;54.718;18.426;2024-01-06T01:46:28;0.10;;;0.10;;
77105;SDS011;66057;54.718;18.426;2024-01-06T01:48:57;0.13;;;0.10;;
77105;SDS011;66057;54.718;18.426;2024-01-06T01:51:28;0.20;;;0.13;;
77105;SDS011;66057;54.718;18.426;2024-01-06T01:54:00;0.03;;;0.00;;
77105;SDS011;66057;54.718;18.426;2024-01-06T01:56:28;0.10;;;0.10;;
77105;SDS011;66057;54.718;18.426;2024-01-06T01:59:05;0.00;;;0.00;;
77105;SDS011;66057;54.718;18.426;2024-01-06T02:01:35;0.00;;;0.00;;
77105;SDS011;66057;54.718;18.426;2024-01-06T02:04:01;0.63;;;0.28;;
77105;SDS011;66057;54.718;18.426;2024-01-06T02:06:27;0.20;;;0.20;;
77105;SDS011;66057;54.718;18.426;2024-01-06T02:08:54;0.15;;;0.10;;
77105;SDS011;66057;54.718;18.426;2024-01-06T02:11:28;0.13;;;0.05;;
77105;SDS011;66057;54.718;18.426;2024-01-06T02:13:54;0.82;;;0.32;;
77105;SDS011;66057;54.718;18.426;2024-01-06T02:16:22;3.30;;;0.32;;
77105;SDS011;66057;54.718;18.426;2024-01-06T02:18:48;0.03;;;0.03;;
77105;SDS011;66057;54.718;18.426;2024-01-06T02:21:18;1.77;;;0.20;;
77105;SDS011;66057;54.718;18.426;2024-01-06T02:23:48;0.03;;;0.03;;
77105;SDS011;66057;54.718;18.426;2024-01-06T02:26:16;1.30;;;0.13;;
77105;SDS011;66057;54.718;18.426;2024-01-06T02:28:42;0.00;;;0.00;;
77105;SDS011;66057;54.718;18.426;2024-01-06T02:31:14;0.10;;;0.00;;
77105;SDS011;66057;54.718;18.426;2024-01-06T02:33:40;4.28;;;0.20;;
77105;SDS011;66057;54.718;18.426;2024-01-06T02:36:06;0.13;;;0.13;;
77105;SDS011;66057;54.718;18.426;2024-01-06T02:38:32;1.92;;;0.30;;
77105;SDS011;66057;54.718;18.426;2024-01-06T02:41:01;0.65;;;0.10;;
77105;SDS011;66057;54.718;18.426;2024-01-06T02:43:26;0.80;;;0.25;;
77105;SDS011;66057;54.718;18.426;2024-01-06T02:45:53;0.25;;;0.03;;
77105;SDS011;66057;54.718;18.426;2024-01-06T02:48:19;0.85;;;0.00;;
77105;SDS011;66057;54.718;18.426;2024-01-06T02:50:45;0.20;;;0.10;;
77105;SDS011;66057;54.718;18.426;2024-01-06T02:53:11;0.70;;;0.20;;
77105;SDS011;66057;54.718;18.426;2024-01-06T02:55:39;0.13;;;0.13;;
77105;SDS011;66057;54.718;18.426;2024-01-06T02:58:05;0.30;;;0.30;;
77105;SDS011;66057;54.718;18.426;2024-01-06T03:00:32;0.10;;;0.00;;
77105;SDS011;66057;54.718;18.426;2024-01-06T03:02:57;0.13;;;0.10;;
77105;SDS011;66057;54.718;18.426;2024-01-06T03:05:25;5.65;;;0.65;;
77105;SDS011;66057;54.718;18.426;2024-01-06T03:07:51;0.95;;;0.65;;
77105;SDS011;66057;54.718;18.426;2024-01-06T03:10:17;0.43;;;0.25;;
77105;SDS011;66057;54.718;18.426;2024-01-06T03:12:43;0.00;;;0.00;;
77105;SDS011;66057;54.718;18.426;2024-01-06T03:15:16;1.55;;;0.13;;
77105;SDS011;66057;54.718;18.426;2024-01-06T03:17:42;0.13;;;0.13;;
77105;SDS011;66057;54.718;18.426;2024-01-06T03:20:12;0.28;;;0.28;;
77105;SDS011;66057;54.718;18.426;2024-01-06T03:22:38;0.38;;;0.10;;
77105;SDS011;66057;54.718;18.426;2024-01-06T03:25:05;6.97;;;0.88;;
77105;SDS011;66057;54.718;18.426;2024-01-06T03:27:31;0.03;;;0.03;;
77105;SDS011;66057;54.718;18.426;2024-01-06T03:30:00;5.07;;;0.73;;
77105;SDS011;66057;54.718;18.426;2024-01-06T03:32:26;0.32;;;0.05;;
77105;SDS011;66057;54.718;18.426;2024-01-06T03:34:55;1.02;;;0.50;;
77105;SDS011;66057;54.718;18.426;2024-01-06T03:37:21;1.85;;;0.50;;
77105;SDS011;66057;54.718;18.426;2024-01-06T03:39:52;0.00;;;0.00;;
77105;SDS011;66057;54.718;18.426;2024-01-06T03:42:18;0.65;;;0.13;;
77105;SDS011;66057;54.718;18.426;2024-01-06T03:44:54;0.73;;;0.10;;
77105;SDS011;66057;54.718;18.426;2024-01-06T03:47:21;0.10;;;0.10;;
77105;SDS011;66057;54.718;18.426;2024-01-06T03:49:48;0.85;;;0.25;;
77105;SDS011;66057;54.718;18.426;2024-01-06T03:52:14;0.00;;;0.00;;
77105;SDS011;66057;54.718;18.426;2024-01-06T03:54:41;0.10;;;0.10;;
77105;SDS011;66057;54.718;18.426;2024-01-06T03:57:08;0.30;;;0.25;;
77105;SDS011;66057;54.718;18.426;2024-01-06T03:59:34;0.10;;;0.10;;
77105;SDS011;66057;54.718;18.426;2024-01-06T04:02:02;0.28;;;0.28;;
77105;SDS011;66057;54.718;18.426;2024-01-06T04:04:28;0.00;;;0.00;;
77105;SDS011;66057;54.718;18.426;2024-01-06T04:06:54;0.20;;;0.20;;
77105;SDS011;66057;54.718;18.426;2024-01-06T04:09:20;0.82;;;0.68;;
77105;SDS011;66057;54.718;18.426;2024-01-06T04:11:46;0.00;;;0.00;;
77105;SDS011;66057;54.718;18.426;2024-01-06T04:14:12;0.95;;;0.35;;
77105;SDS011;66057;54.718;18.426;2024-01-06T04:16:38;0.32;;;0.20;;
77105;SDS011;66057;54.718;18.426;2024-01-06T04:19:07;0.22;;;0.22;;
77105;SDS011;66057;54.718;18.426;2024-01-06T04:21:35;1.60;;;0.10;;
77105;SDS011;66057;54.718;18.426;2024-01-06T04:24:11;0.32;;;0.10;;
77105;SDS011;66057;54.718;18.426;2024-01-06T04:26:41;0.38;;;0.13;;
77105;SDS011;66057;54.718;18.426;2024-01-06T04:29:10;0.43;;;0.15;;
77105;SDS011;66057;54.718;18.426;2024-01-06T04:31:37;1.42;;;0.75;;
77105;SDS011;66057;54.718;18.426;2024-01-06T04:34:04;0.35;;;0.10;;
77105;SDS011;66057;54.718;18.426;2024-01-06T04:36:29;0.05;;;0.05;;
77105;SDS011;66057;54.718;18.426;2024-01-06T04:38:59;0.00;;;0.00;;
77105;SDS011;66057;54.718;18.426;2024-01-06T04:41:24;0.73;;;0.30;;
77105;SDS011;66057;54.718;18.426;2024-01-06T04:46:17;0.90;;;0.43;;
77105;SDS011;66057;54.718;18.426;2024-01-06T04:48:43;0.10;;;0.10;;
77105;SDS011;66057;54.718;18.426;2024-01-06T04:51:10;1.20;;;0.10;;
77105;SDS011;66057;54.718;18.426;2024-01-06T04:53:38;4.47;;;0.22;;
77105;SDS011;66057;54.718;18.426;2024-01-06T04:56:03;0.82;;;0.10;;
77105;SDS011;66057;54.718;18.426;2024-01-06T04:58:30;0.20;;;0.20;;
77105;SDS011;66057;54.718;18.426;2024-01-06T05:00:56;0.00;;;0.00;;
77105;SDS011;66057;54.718;18.426;2024-01-06T05:03:24;0.32;;;0.20;;
77105;SDS011;66057;54.718;18.426;2024-01-06T05:05:49;0.15;;;0.10;;
77105;SDS011;66057;54.718;18.426;2024-01-06T05:08:16;0.70;;;0.35;;
77105;SDS011;66057;54.718;18.426;2024-01-06T05:10:43;0.22;;;0.22;;
77105;SDS011;66057;54.718;18.426;2024-01-06T05:13:10;0.10;;;0.10;;
77105;SDS011;66057;54.718;18.426;2024-01-06T05:15:36;0.43;;;0.25;;
77105;SDS011;66057;54.718;18.426;2024-01-06T05:18:04;0.00;;;0.00;;
77105;SDS011;66057;54.718;18.426;2024-01-06T05:20:31;0.05;;;0.00;;
77105;SDS011;66057;54.718;18.426;2024-01-06T05:22:57;0.00;;;0.00;;
77105;SDS011;66057;54.718;18.426;2024-01-06T05:25:23;0.38;;;0.13;;
77105;SDS011;66057;54.718;18.426;2024-01-06T05:27:49;0.10;;;0.10;;
77105;SDS011;66057;54.718;18.426;2024-01-06T05:30:15;0.20;;;0.10;;
77105;SDS011;66057;54.718;18.426;2024-01-06T05:32:41;0.13;;;0.13;;
77105;SDS011;66057;54.718;18.426;2024-01-06T05:35:06;0.20;;;0.10;;
77105;SDS011;66057;54.718;18.426;2024-01-06T05:37:36;0.10;;;0.10;;
77105;SDS011;66057;54.718;18.426;2024-01-06T05:40:02;0.15;;;0.15;;
77105;SDS011;66057;54.718;18.426;2024-01-06T05:42:30;0.00;;;0.00;;
77105;SDS011;66057;54.718;18.426;2024-01-06T05:44:55;0.10;;;0.10;;
77105;SDS011;66057;54.718;18.426;2024-01-06T05:47:21;0.17;;;0.08;;
77105;SDS011;66057;54.718;18.426;2024-01-06T05:49:48;0.15;;;0.00;;
77105;SDS011;66057;54.718;18.426;2024-01-06T05:52:14;0.63;;;0.10;;
77105;SDS011;66057;54.718;18.426;2024-01-06T05:54:41;0.00;;;0.00;;
77105;SDS011;66057;54.718;18.426;2024-01-06T05:57:08;0.00;;;0.00;;
77105;SDS011;66057;54.718;18.426;2024-01-06T05:59:34;0.38;;;0.30;;
77105;SDS011;66057;54.718;18.426;2024-01-06T06:02:01;0.25;;;0.10;;
77105;SDS011;66057;54.718;18.426;2024-01-06T06:04:27;0.30;;;0.30;;
77105;SDS011;66057;54.718;18.426;2024-01-06T06:06:53;0.32;;;0.20;;
77105;SDS011;66057;54.718;18.426;2024-01-06T06:09:19;0.25;;;0.10;;
77105;SDS011;66057;54.718;18.426;2024-01-06T06:11:47;0.30;;;0.20;;
77105;SDS011;66057;54.718;18.426;2024-01-06T06:14:14;0.40;;;0.20;;
77105;SDS011;66057;54.718;18.426;2024-01-06T06:16:42;0.00;;;0.00;;
77105;SDS011;66057;54.718;18.426;2024-01-06T06:19:09;0.20;;;0.20;;
77105;SDS011;66057;54.718;18.426;2024-01-06T06:21:36;0.20;;;0.10;;
77105;SDS011;66057;54.718;18.426;2024-01-06T06:24:02;2.40;;;0.30;;
77105;SDS011;66057;54.718;18.426;2024-01-06T06:28:55;0.30;;;0.13;;
77105;SDS011;66057;54.718;18.426;2024-01-06T06:31:22;0.10;;;0.10;;
77105;SDS011;66057;54.718;18.426;2024-01-06T06:33:48;0.10;;;0.10;;
77105;SDS011;66057;54.718;18.426;2024-01-06T06:36:21;0.30;;;0.08;;
77105;SDS011;66057;54.718;18.426;2024-01-06T06:38:47;0.10;;;0.10;;
77105;SDS011;66057;54.718;18.426;2024-01-06T06:41:14;0.03;;;0.00;;
77105;SDS011;66057;54.718;18.426;2024-01-06T06:43:41;0.47;;;0.17;;
77105;SDS011;66057;54.718;18.426;2024-01-06T06:46:07;1.05;;;0.20;;
77105;SDS011;66057;54.718;18.426;2024-01-06T06:48:34;1.08;;;0.63;;
77105;SDS011;66057;54.718;18.426;2024-01-06T06:51:03;8.07;;;0.60;;
77105;SDS011;66057;54.718;18.426;2024-01-06T06:53:29;0.00;;;0.00;;
77105;SDS011;66057;54.718;18.426;2024-01-06T06:55:57;0.00;;;0.00;;
77105;SDS011;66057;54.718;18.426;2024-01-06T06:58:23;0.93;;;0.40;;
77105;SDS011;66057;54.718;18.426;2024-01-06T07:00:51;0.32;;;0.20;;
77105;SDS011;66057;54.718;18.426;2024-01-06T07:03:16;0.47;;;0.10;;
77105;SDS011;66057;54.718;18.426;2024-01-06T07:05:43;1.00;;;0.55;;
77105;SDS011;66057;54.718;18.426;2024-01-06T07:08:09;0.10;;;0.10;;
77105;SDS011;66057;54.718;18.426;2024-01-06T07:10:35;0.38;;;0.20;;
77105;SDS011;66057;54.718;18.426;2024-01-06T07:13:03;0.35;;;0.20;;
77105;SDS011;66057;54.718;18.426;2024-01-06T07:15:32;0.63;;;0.22;;
77105;SDS011;66057;54.718;18.426;2024-01-06T07:17:58;0.93;;;0.10;;
77105;SDS011;66057;54.718;18.426;2024-01-06T07:20:24;0.00;;;0.00;;
77105;SDS011;66057;54.718;18.426;2024-01-06T07:22:50;0.47;;;0.25;;
77105;SDS011;66057;54.718;18.426;2024-01-06T07:25:15;0.88;;;0.20;;
77105;SDS011;66057;54.718;18.426;2024-01-06T07:27:42;0.45;;;0.20;;
77105;SDS011;66057;54.718;18.426;2024-01-06T07:30:14;0.25;;;0.20;;
77105;SDS011;66057;54.718;18.426;2024-01-06T07:32:40;0.38;;;0.20;;
77105;SDS011;66057;54.718;18.426;2024-01-06T07:35:06;0.55;;;0.30;;
77105;SDS011;66057;54.718;18.426;2024-01-06T07:37:33;0.20;;;0.10;;
77105;SDS011;66057;54.718;18.426;2024-01-06T07:40:00;0.55;;;0.10;;
77105;SDS011;66057;54.718;18.426;2024-01-06T07:42:26;0.63;;;0.15;;
77105;SDS011;66057;54.718;18.426;2024-01-06T07:44:53;0.13;;;0.10;;
77105;SDS011;66057;54.718;18.426;2024-01-06T07:47:19;0.57;;;0.20;;
77105;SDS011;66057;54.718;18.426;2024-01-06T07:49:45;0.47;;;0.15;;
77105;SDS011;66057;54.718;18.426;2024-01-06T07:52:14;0.65;;;0.13;;
77105;SDS011;66057;54.718;18.426;2024-01-06T07:54:40;1.52;;;0.30;;
77105;SDS011;66057;54.718;18.426;2024-01-06T07:57:07;0.93;;;0.20;;
77105;SDS011;66057;54.718;18.426;2024-01-06T07:59:32;0.35;;;0.20;;
77105;SDS011;66057;54.718;18.426;2024-01-06T08:01:59;0.00;;;0.00;;
77105;SDS011;66057;54.718;18.426;2024-01-06T08:04:25;2.50;;;0.10;;
77105;SDS011;66057;54.718;18.426;2024-01-06T08:06:53;0.45;;;0.20;;
77105;SDS011;66057;54.718;18.426;2024-01-06T08:09:18;0.10;;;0.10;;
77105;SDS011;66057;54.718;18.426;2024-01-06T08:11:44;2.75;;;0.20;;
77105;SDS011;66057;54.718;18.426;2024-01-06T08:14:13;2.72;;;0.10;;
77105;SDS011;66057;54.718;18.426;2024-01-06T08:16:40;1.25;;;0.17;;
77105;SDS011;66057;54.718;18.426;2024-01-06T08:19:07;1.17;;;0.17;;
77105;SDS011;66057;54.718;18.426;2024-01-06T08:21:56;0.10;;;0.00;;
77105;SDS011;66057;54.718;18.426;2024-01-06T08:24:21;0.47;;;0.30;;
77105;SDS011;66057;54.718;18.426;2024-01-06T08:26:47;0.10;;;0.00;;
77105;SDS011;66057;54.718;18.426;2024-01-06T08:29:13;0.82;;;0.10;;
77105;SDS011;66057;54.718;18.426;2024-01-06T08:31:43;0.00;;;0.00;;
77105;SDS011;66057;54.718;18.426;2024-01-06T08:34:08;0.88;;;0.13;;
77105;SDS011;66057;54.718;18.426;2024-01-06T08:36:34;0.10;;;0.00;;
77105;SDS011;66057;54.718;18.426;2024-01-06T08:39:00;0.10;;;0.08;;
77105;SDS011;66057;54.718;18.426;2024-01-06T08:41:26;0.25;;;0.17;;
77105;SDS011;66057;54.718;18.426;2024-01-06T08:43:52;0.95;;;0.25;;
77105;SDS011;66057;54.718;18.426;2024-01-06T08:46:19;0.52;;;0.25;;
77105;SDS011;66057;54.718;18.426;2024-01-06T08:48:45;0.50;;;0.20;;
77105;SDS011;66057;54.718;18.426;2024-01-06T08:51:11;0.10;;;0.10;;
77105;SDS011;66057;54.718;18.426;2024-01-06T08:53:36;0.30;;;0.20;;
77105;SDS011;66057;54.718;18.426;2024-01-06T08:56:02;0.13;;;0.13;;
77105;SDS011;66057;54.718;18.426;2024-01-06T08:58:29;0.20;;;0.20;;
77105;SDS011;66057;54.718;18.426;2024-01-06T09:00:58;0.35;;;0.13;;
77105;SDS011;66057;54.718;18.426;2024-01-06T09:03:25;0.90;;;0.10;;
77105;SDS011;66057;54.718;18.426;2024-01-06T09:05:52;0.57;;;0.20;;
77105;SDS011;66057;54.718;18.426;2024-01-06T09:08:18;0.15;;;0.13;;
77105;SDS011;66057;54.718;18.426;2024-01-06T09:10:47;0.20;;;0.10;;
77105;SDS011;66057;54.718;18.426;2024-01-06T09:13:17;0.20;;;0.13;;
77105;SDS011;66057;54.718;18.426;2024-01-06T09:18:10;0.10;;;0.00;;
77105;SDS011;66057;54.718;18.426;2024-01-06T09:20:37;0.45;;;0.20;;
77105;SDS011;66057;54.718;18.426;2024-01-06T09:23:04;0.20;;;0.10;;
77105;SDS011;66057;54.718;18.426;2024-01-06T09:25:30;0.85;;;0.85;;
77105;SDS011;66057;54.718;18.426;2024-01-06T09:27:55;0.10;;;0.10;;
77105;SDS011;66057;54.718;18.426;2024-01-06T09:30:21;1.88;;;0.20;;
77105;SDS011;66057;54.718;18.426;2024-01-06T09:32:48;0.00;;;0.00;;
77105;SDS011;66057;54.718;18.426;2024-01-06T09:35:15;0.22;;;0.20;;
77105;SDS011;66057;54.718;18.426;2024-01-06T09:37:40;1.08;;;0.10;;
77105;SDS011;66057;54.718;18.426;2024-01-06T09:40:10;0.22;;;0.20;;
77105;SDS011;66057;54.718;18.426;2024-01-06T09:42:47;3.58;;;0.28;;
77105;SDS011;66057;54.718;18.426;2024-01-06T09:45:29;0.05;;;0.05;;
77105;SDS011;66057;54.718;18.426;2024-01-06T09:47:56;0.20;;;0.10;;
77105;SDS011;66057;54.718;18.426;2024-01-06T09:50:23;0.10;;;0.10;;
77105;SDS011;66057;54.718;18.426;2024-01-06T09:52:50;0.20;;;0.10;;
77105;SDS011;66057;54.718;18.426;2024-01-06T09:55:23;2.85;;;0.60;;
77105;SDS011;66057;54.718;18.426;2024-01-06T09:57:54;1.60;;;0.20;;
77105;SDS011;66057;54.718;18.426;2024-01-06T10:00:20;0.98;;;0.10;;
77105;SDS011;66057;54.718;18.426;2024-01-06T10:02:47;0.03;;;0.00;;
77105;SDS011;66057;54.718;18.426;2024-01-06T10:05:15;0.45;;;0.10;;
77105;SDS011;66057;54.718;18.426;2024-01-06T10:07:43;0.00;;;0.00;;
77105;SDS011;66057;54.718;18.426;2024-01-06T10:10:22;0.70;;;0.15;;
77105;SDS011;66057;54.718;18.426;2024-01-06T10:15:18;0.38;;;0.20;;
77105;SDS011;66057;54.718;18.426;2024-01-06T10:17:46;0.85;;;0.85;;
77105;SDS011;66057;54.718;18.426;2024-01-06T10:20:12;1.27;;;0.80;;
77105;SDS011;66057;54.718;18.426;2024-01-06T10:22:42;1.83;;;0.10;;
77105;SDS011;66057;54.718;18.426;2024-01-06T10:25:09;0.00;;;0.00;;
77105;SDS011;66057;54.718;18.426;2024-01-06T10:27:40;0.10;;;0.00;;
77105;SDS011;66057;54.718;18.426;2024-01-06T10:30:07;2.83;;;0.55;;
77105;SDS011;66057;54.718;18.426;2024-01-06T10:35:01;0.52;;;0.30;;
77105;SDS011;66057;54.718;18.426;2024-01-06T10:37:29;0.43;;;0.10;;
77105;SDS011;66057;54.718;18.426;2024-01-06T10:40:08;0.17;;;0.10;;
77105;SDS011;66057;54.718;18.426;2024-01-06T10:42:37;0.90;;;0.90;;
77105;SDS011;66057;54.718;18.426;2024-01-06T10:45:09;0.03;;;0.00;;
77105;SDS011;66057;54.718;18.426;2024-01-06T10:47:37;0.20;;;0.10;;
77105;SDS011;66057;54.718;18.426;2024-01-06T10:50:03;0.10;;;0.10;;
77105;SDS011;66057;54.718;18.426;2024-01-06T10:52:31;0.13;;;0.05;;
77105;SDS011;66057;54.718;18.426;2024-01-06T10:54:59;0.52;;;0.10;;
77105;SDS011;66057;54.718;18.426;2024-01-06T10:57:28;0.20;;;0.10;;
77105;SDS011;66057;54.718;18.426;2024-01-06T10:59:57;1.27;;;0.40;;
77105;SDS011;66057;54.718;18.426;2024-01-06T11:02:26;0.65;;;0.13;;
77105;SDS011;66057;54.718;18.426;2024-01-06T11:04:52;1.10;;;0.15;;
77105;SDS011;66057;54.718;18.426;2024-01-06T11:07:19;0.10;;;0.03;;
77105;SDS011;66057;54.718;18.426;2024-01-06T11:09:50;2.20;;;0.20;;
77105;SDS011;66057;54.718;18.426;2024-01-06T11:12:28;0.47;;;0.10;;
77105;SDS011;66057;54.718;18.426;2024-01-06T11:14:54;0.10;;;0.10;;
77105;SDS011;66057;54.718;18.426;2024-01-06T11:20:14;2.85;;;0.15;;
77105;SDS011;66057;54.718;18.426;2024-01-06T11:22:41;0.73;;;0.50;;
77105;SDS011;66057;54.718;18.426;2024-01-06T11:25:08;0.93;;;0.40;;
77105;SDS011;66057;54.718;18.426;2024-01-06T11:27:39;1.00;;;0.30;;
77105;SDS011;66057;54.718;18.426;2024-01-06T11:30:08;2.80;;;0.35;;
77105;SDS011;66057;54.718;18.426;2024-01-06T11:32:46;0.95;;;0.47;;
77105;SDS011;66057;54.718;18.426;2024-01-06T11:35:15;0.22;;;0.22;;
77105;SDS011;66057;54.718;18.426;2024-01-06T11:42:47;0.28;;;0.10;;
77105;SDS011;66057;54.718;18.426;2024-01-06T11:45:25;0.20;;;0.20;;
77105;SDS011;66057;54.718;18.426;2024-01-06T11:47:53;2.00;;;0.10;;
77105;SDS011;66057;54.718;18.426;2024-01-06T11:50:28;1.55;;;0.20;;
77105;SDS011;66057;54.718;18.426;2024-01-06T11:52:58;0.40;;;0.20;;
77105;SDS011;66057;54.718;18.426;2024-01-06T11:55:25;0.15;;;0.00;;
77105;SDS011;66057;54.718;18.426;2024-01-06T11:57:57;0.50;;;0.10;;
77105;SDS011;66057;54.718;18.426;2024-01-06T12:00:27;0.70;;;0.40;;
77105;SDS011;66057;54.718;18.426;2024-01-06T12:03:00;9.35;;;0.22;;
77105;SDS011;66057;54.718;18.426;2024-01-06T12:05:27;0.10;;;0.10;;
77105;SDS011;66057;54.718;18.426;2024-01-06T12:07:58;0.47;;;0.20;;
77105;SDS011;66057;54.718;18.426;2024-01-06T12:10:30;0.20;;;0.20;;
77105;SDS011;66057;54.718;18.426;2024-01-06T12:15:26;2.40;;;0.35;;
77105;SDS011;66057;54.718;18.426;2024-01-06T12:17:54;0.30;;;0.10;;
77105;SDS011;66057;54.718;18.426;2024-01-06T12:20:22;1.05;;;0.20;;
77105;SDS011;66057;54.718;18.426;2024-01-06T12:22:53;0.13;;;0.08;;
77105;SDS011;66057;54.718;18.426;2024-01-06T12:25:23;0.22;;;0.10;;
77105;SDS011;66057;54.718;18.426;2024-01-06T12:27:52;0.50;;;0.20;;
77105;SDS011;66057;54.718;18.426;2024-01-06T12:30:19;0.90;;;0.40;;
77105;SDS011;66057;54.718;18.426;2024-01-06T12:32:48;1.38;;;0.40;;
77105;SDS011;66057;54.718;18.426;2024-01-06T12:35:17;0.20;;;0.13;;
77105;SDS011;66057;54.718;18.426;2024-01-06T12:37:44;0.40;;;0.20;;
77105;SDS011;66057;54.718;18.426;2024-01-06T12:40:14;0.47;;;0.10;;
77105;SDS011;66057;54.718;18.426;2024-01-06T12:42:42;0.45;;;0.10;;
77105;SDS011;66057;54.718;18.426;2024-01-06T12:45:08;3.25;;;0.30;;
77105;SDS011;66057;54.718;18.426;2024-01-06T12:47:35;0.60;;;0.20;;
77105;SDS011;66057;54.718;18.426;2024-01-06T12:50:02;0.52;;;0.20;;
77105;SDS011;66057;54.718;18.426;2024-01-06T12:52:30;0.22;;;0.15;;
77105;SDS011;66057;54.718;18.426;2024-01-06T12:54:56;0.32;;;0.10;;
77105;SDS011;66057;54.718;18.426;2024-01-06T12:57:21;1.77;;;0.13;;
77105;SDS011;66057;54.718;18.426;2024-01-06T12:59:47;1.95;;;0.20;;
77105;SDS011;66057;54.718;18.426;2024-01-06T13:02:14;2.00;;;0.10;;
77105;SDS011;66057;54.718;18.426;2024-01-06T13:04:42;0.85;;;0.10;;
77105;SDS011;66057;54.718;18.426;2024-01-06T13:07:08;0.10;;;0.10;;
77105;SDS011;66057;54.718;18.426;2024-01-06T13:09:35;0.93;;;0.22;;
77105;SDS011;66057;54.718;18.426;2024-01-06T13:12:00;0.10;;;0.10;;
77105;SDS011;66057;54.718;18.426;2024-01-06T13:14:28;0.22;;;0.22;;
77105;SDS011;66057;54.718;18.426;2024-01-06T13:16:55;0.13;;;0.13;;
77105;SDS011;66057;54.718;18.426;2024-01-06T13:19:29;0.25;;;0.08;;
77105;SDS011;66057;54.718;18.426;2024-01-06T13:21:55;0.10;;;0.08;;
77105;SDS011;66057;54.718;18.426;2024-01-06T13:24:21;0.45;;;0.10;;
77105;SDS011;66057;54.718;18.426;2024-01-06T13:26:54;0.00;;;0.00;;
77105;SDS011;66057;54.718;18.426;2024-01-06T13:29:55;0.00;;;0.00;;
77105;SDS011;66057;54.718;18.426;2024-01-06T13:32:34;1.42;;;0.20;;
77105;SDS011;66057;54.718;18.426;2024-01-06T13:37:41;0.00;;;0.00;;
77105;SDS011;66057;54.718;18.426;2024-01-06T13:40:14;1.70;;;0.40;;
77105;SDS011;66057;54.718;18.426;2024-01-06T13:42:40;4.95;;;0.10;;
77105;SDS011;66057;54.718;18.426;2024-01-06T13:45:07;0.17;;;0.10;;
77105;SDS011;66057;54.718;18.426;2024-01-06T13:47:33;8.07;;;1.95;;
77105;SDS011;66057;54.718;18.426;2024-01-06T13:49:58;0.00;;;0.00;;
77105;SDS011;66057;54.718;18.426;2024-01-06T13:52:25;0.38;;;0.20;;
77105;SDS011;66057;54.718;18.426;2024-01-06T13:54:53;0.88;;;0.20;;
77105;SDS011;66057;54.718;18.426;2024-01-06T13:57:21;0.17;;;0.10;;
77105;SDS011;66057;54.718;18.426;2024-01-06T13:59:47;0.10;;;0.05;;
77105;SDS011;66057;54.718;18.426;2024-01-06T14:02:14;0.10;;;0.10;;
77105;SDS011;66057;54.718;18.426;2024-01-06T14:04:40;0.17;;;0.10;;
77105;SDS011;66057;54.718;18.426;2024-01-06T14:07:07;0.30;;;0.10;;
77105;SDS011;66057;54.718;18.426;2024-01-06T14:09:33;0.38;;;0.17;;
77105;SDS011;66057;54.718;18.426;2024-01-06T14:11:59;0.57;;;0.30;;
77105;SDS011;66057;54.718;18.426;2024-01-06T14:14:25;0.82;;;0.10;;
77105;SDS011;66057;54.718;18.426;2024-01-06T14:16:58;0.10;;;0.10;;
77105;SDS011;66057;54.718;18.426;2024-01-06T14:19:24;0.57;;;0.10;;
77105;SDS011;66057;54.718;18.426;2024-01-06T14:21:51;2.47;;;0.82;;
77105;SDS011;66057;54.718;18.426;2024-01-06T14:24:17;0.30;;;0.22;;
77105;SDS011;66057;54.718;18.426;2024-01-06T14:26:49;0.20;;;0.20;;
77105;SDS011;66057;54.718;18.426;2024-01-06T14:29:15;0.00;;;0.00;;
77105;SDS011;66057;54.718;18.426;2024-01-06T14:31:42;0.13;;;0.10;;
77105;SDS011;66057;54.718;18.426;2024-01-06T14:34:09;0.32;;;0.00;;
77105;SDS011;66057;54.718;18.426;2024-01-06T14:36:36;0.10;;;0.10;;
77105;SDS011;66057;54.718;18.426;2024-01-06T14:39:01;0.30;;;0.20;;
77105;SDS011;66057;54.718;18.426;2024-01-06T14:41:32;0.25;;;0.15;;
77105;SDS011;66057;54.718;18.426;2024-01-06T14:43:58;0.00;;;0.00;;
77105;SDS011;66057;54.718;18.426;2024-01-06T14:46:26;0.20;;;0.10;;
77105;SDS011;66057;54.718;18.426;2024-01-06T14:48:51;0.20;;;0.15;;
77105;SDS011;66057;54.718;18.426;2024-01-06T14:51:18;0.13;;;0.00;;
77105;SDS011;66057;54.718;18.426;2024-01-06T14:53:45;0.00;;;0.00;;
77105;SDS011;66057;54.718;18.426;2024-01-06T14:58:38;0.22;;;0.10;;
77105;SDS011;66057;54.718;18.426;2024-01-06T15:01:06;0.38;;;0.28;;
77105;SDS011;66057;54.718;18.426;2024-01-06T15:03:32;0.05;;;0.00;;
77105;SDS011;66057;54.718;18.426;2024-01-06T15:05:58;1.48;;;0.10;;